Time;durP1;ratioP1;P1;durP2;ratioP2;P2;SDS_P1;SDS_P2;PMS_P1;PMS_P2;Temp;Humidity;BMP_temperature;BMP_pressure;BME280_temperature;BME280_humidity;BME280_pressure;Samples;Min_cycle;Max_cycle;Signal;HPM_P1;HPM_P2
2022/07/26 00:01:16;;;;;;;12.83;3.47;;;;;;;;;;5048604;28;20056;-58
2022/07/26 00:03:42;;;;;;;13.63;3.93;;;;;;;;;;5048346;28;20063;-58
2022/07/26 00:06:08;;;;;;;20.70;3.97;;;;;;;;;;5047642;28;20052;-59
2022/07/26 00:08:34;;;;;;;25.23;4.23;;;;;;;;;;5048606;28;20048;-58
2022/07/26 00:11:01;;;;;;;24.50;4.63;;;;;;;;;;5048628;28;20700;-58
2022/07/26 00:13:27;;;;;;;20.40;3.70;;;;;;;;;;5048846;28;20041;-58
2022/07/26 00:15:53;;;;;;;20.87;4.60;;;;;;;;;;5047906;28;20041;-58
2022/07/26 00:18:19;;;;;;;17.97;4.03;;;;;;;;;;5048223;28;20098;-58
2022/07/26 00:20:47;;;;;;;16.30;4.27;;;;;;;;;;5048360;28;20511;-58
2022/07/26 00:23:13;;;;;;;15.17;3.87;;;;;;;;;;5048575;28;20049;-58
2022/07/26 00:25:39;;;;;;;26.37;6.10;;;;;;;;;;5048407;28;20041;-58
2022/07/26 00:28:05;;;;;;;17.77;4.40;;;;;;;;;;5047787;28;20056;-59
2022/07/26 00:30:32;;;;;;;18.13;5.27;;;;;;;;;;5048512;28;20076;-58
2022/07/26 00:32:58;;;;;;;18.10;4.53;;;;;;;;;;5048220;28;20047;-58
2022/07/26 00:35:24;;;;;;;19.50;4.50;;;;;;;;;;5048227;28;20048;-58
2022/07/26 00:37:50;;;;;;;20.60;4.77;;;;;;;;;;5048212;28;20060;-58
2022/07/26 00:40:16;;;;;;;18.83;4.53;;;;;;;;;;5047851;28;20049;-58
2022/07/26 00:42:42;;;;;;;15.20;4.10;;;;;;;;;;5048237;28;20080;-58
2022/07/26 00:45:09;;;;;;;18.67;4.53;;;;;;;;;;5047856;28;20092;-58
2022/07/26 00:47:35;;;;;;;26.27;5.40;;;;;;;;;;5048404;28;20051;-58
2022/07/26 00:50:01;;;;;;;27.90;5.57;;;;;;;;;;5047045;28;20498;-58
2022/07/26 00:52:27;;;;;;;22.70;4.80;;;;;;;;;;5047747;28;20123;-58
2022/07/26 00:54:55;;;;;;;23.57;5.57;;;;;;;;;;5048269;28;20041;-59
2022/07/26 00:57:23;;;;;;;21.37;4.63;;;;;;;;;;5047788;28;20072;-58
2022/07/26 00:59:50;;;;;;;25.13;5.60;;;;;;;;;;5047948;28;20055;-58
2022/07/26 01:02:16;;;;;;;22.43;5.20;;;;;;;;;;5048054;28;20045;-58
2022/07/26 01:04:45;;;;;;;24.93;7.03;;;;;;;;;;5048054;28;20124;-58
2022/07/26 01:07:12;;;;;;;29.90;6.03;;;;;;;;;;5047797;28;20053;-58
2022/07/26 01:09:39;;;;;;;24.17;5.80;;;;;;;;;;5048033;28;20071;-59
2022/07/26 01:12:05;;;;;;;19.17;5.00;;;;;;;;;;5048029;28;20052;-58
2022/07/26 01:14:31;;;;;;;24.03;6.37;;;;;;;;;;5047980;28;20059;-58
2022/07/26 01:16:57;;;;;;;25.93;5.87;;;;;;;;;;5047633;28;20685;-58
2022/07/26 01:19:23;;;;;;;18.17;5.60;;;;;;;;;;5050811;28;20044;-58
2022/07/26 01:21:50;;;;;;;23.37;6.50;;;;;;;;;;5051280;28;20136;-59
2022/07/26 01:24:16;;;;;;;30.13;5.60;;;;;;;;;;5051321;28;20091;-59
2022/07/26 01:26:42;;;;;;;31.03;6.60;;;;;;;;;;5051328;28;20055;-58
2022/07/26 01:29:08;;;;;;;27.70;5.70;;;;;;;;;;5051105;28;20037;-59
2022/07/26 01:31:34;;;;;;;19.57;5.60;;;;;;;;;;5051024;28;20088;-58
2022/07/26 01:34:00;;;;;;;21.60;5.70;;;;;;;;;;5051234;28;20095;-58
2022/07/26 01:36:26;;;;;;;27.77;5.17;;;;;;;;;;5050590;28;20053;-58
2022/07/26 01:38:52;;;;;;;25.83;6.43;;;;;;;;;;5051490;28;20049;-58
2022/07/26 01:41:18;;;;;;;27.43;7.03;;;;;;;;;;5050841;28;20418;-58
2022/07/26 01:43:45;;;;;;;25.93;6.80;;;;;;;;;;5050730;28;20461;-59
2022/07/26 01:46:12;;;;;;;31.77;6.33;;;;;;;;;;5050690;28;20056;-58
2022/07/26 01:48:38;;;;;;;22.77;6.67;;;;;;;;;;5050953;28;20107;-59
2022/07/26 01:51:05;;;;;;;24.90;6.10;;;;;;;;;;5050745;28;20055;-59
2022/07/26 01:53:31;;;;;;;39.90;7.20;;;;;;;;;;5050613;28;20041;-59
2022/07/26 01:55:57;;;;;;;25.27;7.30;;;;;;;;;;5050372;28;20483;-58
2022/07/26 01:58:23;;;;;;;19.70;6.47;;;;;;;;;;5050399;28;20063;-59
2022/07/26 02:00:49;;;;;;;26.20;6.73;;;;;;;;;;5050804;28;20084;-59
2022/07/26 02:03:15;;;;;;;28.23;6.50;;;;;;;;;;5051074;28;20362;-58
2022/07/26 02:05:41;;;;;;;23.43;6.57;;;;;;;;;;5050578;28;20465;-58
2022/07/26 02:08:07;;;;;;;28.80;7.60;;;;;;;;;;5050724;28;20128;-58
2022/07/26 02:13:18;;;;;;;29.87;7.87;;;;;;;;;;5050234;28;20045;-58
2022/07/26 02:15:44;;;;;;;27.40;7.30;;;;;;;;;;5050159;28;20136;-58
2022/07/26 02:18:10;;;;;;;25.60;7.27;;;;;;;;;;5050121;28;20467;-58
2022/07/26 02:20:36;;;;;;;23.57;6.80;;;;;;;;;;5050080;28;20068;-59
2022/07/26 02:23:03;;;;;;;39.67;8.00;;;;;;;;;;5050463;28;20052;-59
2022/07/26 02:25:29;;;;;;;26.73;7.37;;;;;;;;;;5049958;28;20049;-59
2022/07/26 02:27:56;;;;;;;25.03;8.07;;;;;;;;;;5050024;28;20044;-58
2022/07/26 02:30:22;;;;;;;22.17;7.03;;;;;;;;;;5049474;28;20033;-59
2022/07/26 02:32:48;;;;;;;25.83;6.50;;;;;;;;;;5049967;28;20044;-59
2022/07/26 02:35:14;;;;;;;24.77;6.60;;;;;;;;;;5049923;28;20102;-58
2022/07/26 02:37:40;;;;;;;22.43;7.17;;;;;;;;;;5050175;28;20056;-59
2022/07/26 02:40:07;;;;;;;26.77;7.80;;;;;;;;;;5049673;28;20045;-58
2022/07/26 02:42:33;;;;;;;19.87;6.20;;;;;;;;;;5049847;28;20060;-59
2022/07/26 02:44:59;;;;;;;26.27;7.17;;;;;;;;;;5049806;28;20057;-58
2022/07/26 02:47:25;;;;;;;26.70;6.57;;;;;;;;;;5049781;28;20051;-58
2022/07/26 02:49:51;;;;;;;20.17;6.27;;;;;;;;;;5049557;28;20557;-59
2022/07/26 02:52:17;;;;;;;24.13;6.07;;;;;;;;;;5049471;28;20045;-59
2022/07/26 02:54:43;;;;;;;32.27;6.37;;;;;;;;;;5049775;28;20411;-59
2022/07/26 02:57:09;;;;;;;17.47;5.33;;;;;;;;;;5049381;28;20705;-59
2022/07/26 02:59:35;;;;;;;21.33;5.90;;;;;;;;;;5049592;28;20049;-59
2022/07/26 03:02:01;;;;;;;20.47;6.30;;;;;;;;;;5049374;28;20041;-59
2022/07/26 03:04:27;;;;;;;20.47;5.87;;;;;;;;;;5049705;28;20049;-59
2022/07/26 03:06:53;;;;;;;21.73;6.97;;;;;;;;;;5049716;28;20484;-60
2022/07/26 03:09:19;;;;;;;16.07;6.80;;;;;;;;;;5049896;28;20083;-59
2022/07/26 03:11:45;;;;;;;19.80;6.47;;;;;;;;;;5049110;28;20045;-59
2022/07/26 03:14:11;;;;;;;19.43;5.80;;;;;;;;;;5049678;28;20048;-59
2022/07/26 03:16:38;;;;;;;21.33;5.33;;;;;;;;;;5049382;28;20052;-59
2022/07/26 03:19:04;;;;;;;22.07;5.40;;;;;;;;;;5048847;28;20040;-59
2022/07/26 03:21:30;;;;;;;22.57;6.23;;;;;;;;;;5049108;28;20052;-59
2022/07/26 03:23:56;;;;;;;26.60;6.33;;;;;;;;;;5049193;28;20044;-59
2022/07/26 03:26:22;;;;;;;19.30;6.87;;;;;;;;;;5049529;28;20044;-60
2022/07/26 03:28:48;;;;;;;16.20;5.03;;;;;;;;;;5048946;28;20055;-59
2022/07/26 03:31:14;;;;;;;21.43;5.93;;;;;;;;;;5049068;28;20084;-59
2022/07/26 03:33:40;;;;;;;20.23;5.43;;;;;;;;;;5049174;28;20136;-59
2022/07/26 03:36:09;;;;;;;18.60;5.30;;;;;;;;;;5048763;28;20419;-59
2022/07/26 03:38:36;;;;;;;12.40;5.20;;;;;;;;;;5048726;28;20610;-59
2022/07/26 03:41:02;;;;;;;15.77;5.40;;;;;;;;;;5048159;28;20049;-59
2022/07/26 03:43:28;;;;;;;15.60;4.90;;;;;;;;;;5048628;28;20060;-59
2022/07/26 03:45:54;;;;;;;13.47;4.90;;;;;;;;;;5048511;28;20103;-59
2022/07/26 03:48:20;;;;;;;16.03;4.60;;;;;;;;;;5049049;28;20052;-60
2022/07/26 03:50:47;;;;;;;24.10;6.80;;;;;;;;;;5048849;28;20052;-60
2022/07/26 03:53:13;;;;;;;9.10;5.87;;;;;;;;;;5048853;28;20071;-59
2022/07/26 03:58:23;;;;;;;15.10;6.53;;;;;;;;;;5048801;28;20055;-59
2022/07/26 04:00:49;;;;;;;9.03;4.87;;;;;;;;;;5048211;28;20044;-60
2022/07/26 04:03:15;;;;;;;6.23;4.10;;;;;;;;;;5048953;28;20106;-60
2022/07/26 04:05:41;;;;;;;20.90;5.47;;;;;;;;;;5048729;28;20045;-60
2022/07/26 04:08:07;;;;;;;10.30;5.47;;;;;;;;;;5048666;28;20052;-60
2022/07/26 04:10:33;;;;;;;15.40;5.43;;;;;;;;;;5048427;28;20052;-61
2022/07/26 04:12:59;;;;;;;14.07;5.40;;;;;;;;;;5047960;28;20419;-61
2022/07/26 04:15:25;;;;;;;10.73;4.63;;;;;;;;;;5048298;28;20041;-60
2022/07/26 04:17:51;;;;;;;18.80;5.67;;;;;;;;;;5048280;28;20053;-61
2022/07/26 04:20:18;;;;;;;17.90;5.70;;;;;;;;;;5048268;28;20132;-60
2022/07/26 04:22:44;;;;;;;11.67;4.03;;;;;;;;;;5048077;28;20067;-61
2022/07/26 04:25:10;;;;;;;14.73;4.27;;;;;;;;;;5048036;28;20458;-60
2022/07/26 04:27:36;;;;;;;13.97;5.30;;;;;;;;;;5048096;28;20041;-61
2022/07/26 04:30:02;;;;;;;11.80;5.40;;;;;;;;;;5047038;28;20138;-61
2022/07/26 04:32:28;;;;;;;17.03;5.40;;;;;;;;;;5048121;28;20045;-61
2022/07/26 04:34:54;;;;;;;11.90;5.10;;;;;;;;;;5048094;28;20049;-61
2022/07/26 04:37:20;;;;;;;22.60;6.43;;;;;;;;;;5045920;28;20045;-61
2022/07/26 04:39:46;;;;;;;29.37;9.13;;;;;;;;;;5045786;28;20123;-61
2022/07/26 04:42:13;;;;;;;12.67;4.80;;;;;;;;;;5046253;28;20118;-60
2022/07/26 04:44:39;;;;;;;13.03;5.17;;;;;;;;;;5047104;28;20057;-61
2022/07/26 04:47:05;;;;;;;18.30;7.40;;;;;;;;;;5047398;28;20276;-61
2022/07/26 04:49:31;;;;;;;17.30;5.00;;;;;;;;;;5047009;28;20087;-61
2022/07/26 04:51:58;;;;;;;13.77;5.77;;;;;;;;;;5047056;28;20044;-61
2022/07/26 04:54:24;;;;;;;18.93;6.90;;;;;;;;;;5049627;28;20067;-61
2022/07/26 04:56:50;;;;;;;14.43;5.43;;;;;;;;;;5050051;28;20048;-61
2022/07/26 04:59:16;;;;;;;17.67;6.50;;;;;;;;;;5049800;28;20090;-61
2022/07/26 05:01:42;;;;;;;12.30;4.20;;;;;;;;;;5050117;28;20041;-61
2022/07/26 05:04:08;;;;;;;10.20;4.17;;;;;;;;;;5049389;28;20065;-61
2022/07/26 05:06:35;;;;;;;12.80;4.77;;;;;;;;;;5048918;28;20351;-61
2022/07/26 05:09:01;;;;;;;17.67;5.67;;;;;;;;;;5050385;28;20071;-61
2022/07/26 05:11:27;;;;;;;11.27;4.83;;;;;;;;;;5050769;28;20056;-61
2022/07/26 05:13:53;;;;;;;14.90;4.40;;;;;;;;;;5050504;28;20091;-61
2022/07/26 05:16:19;;;;;;;9.87;4.03;;;;;;;;;;5050761;28;20053;-61
2022/07/26 05:18:45;;;;;;;9.97;3.57;;;;;;;;;;5051059;28;20510;-61
2022/07/26 05:21:11;;;;;;;10.10;3.83;;;;;;;;;;5050686;28;20045;-61
2022/07/26 05:23:37;;;;;;;12.40;4.83;;;;;;;;;;5048618;28;20517;-61
2022/07/26 05:26:03;;;;;;;11.80;3.83;;;;;;;;;;5050656;28;20159;-61
2022/07/26 05:28:29;;;;;;;11.17;3.43;;;;;;;;;;5050380;28;20049;-61
2022/07/26 05:30:55;;;;;;;11.00;3.40;;;;;;;;;;5050376;28;20037;-61
2022/07/26 05:33:21;;;;;;;12.30;3.57;;;;;;;;;;5050087;28;20111;-61
2022/07/26 05:35:47;;;;;;;11.60;3.93;;;;;;;;;;5050295;28;20095;-61
2022/07/26 05:38:13;;;;;;;11.90;2.70;;;;;;;;;;5050190;28;20525;-61
2022/07/26 05:40:40;;;;;;;13.80;2.77;;;;;;;;;;5050264;28;20041;-61
2022/07/26 05:43:06;;;;;;;11.93;2.43;;;;;;;;;;5049933;28;20154;-61
2022/07/26 05:45:32;;;;;;;16.77;3.00;;;;;;;;;;5050113;28;20594;-61
2022/07/26 05:47:58;;;;;;;7.80;2.30;;;;;;;;;;5049317;28;20514;-61
2022/07/26 05:50:24;;;;;;;11.50;3.20;;;;;;;;;;5049861;28;20049;-61
2022/07/26 05:52:50;;;;;;;11.43;2.40;;;;;;;;;;5048139;28;20052;-61
2022/07/26 05:55:16;;;;;;;10.90;2.37;;;;;;;;;;5049877;28;20045;-61
2022/07/26 05:57:46;;;;;;;8.37;2.20;;;;;;;;;;5049857;28;20044;-61
2022/07/26 06:00:12;;;;;;;13.00;1.93;;;;;;;;;;5049537;28;20053;-61
2022/07/26 06:02:38;;;;;;;7.27;1.60;;;;;;;;;;5049608;28;20073;-61
2022/07/26 06:05:04;;;;;;;10.40;1.87;;;;;;;;;;5048869;28;20419;-61
2022/07/26 06:07:30;;;;;;;8.47;1.73;;;;;;;;;;5049675;28;20056;-61
2022/07/26 06:09:56;;;;;;;14.50;1.73;;;;;;;;;;5049922;28;20055;-60
2022/07/26 06:12:22;;;;;;;13.63;1.53;;;;;;;;;;5050121;28;20123;-61
2022/07/26 06:14:48;;;;;;;8.77;1.63;;;;;;;;;;5049232;28;20402;-60
2022/07/26 06:17:14;;;;;;;6.57;1.30;;;;;;;;;;5049546;28;20044;-61
2022/07/26 06:19:41;;;;;;;6.40;1.40;;;;;;;;;;5049533;28;20135;-61
2022/07/26 06:22:07;;;;;;;12.07;1.77;;;;;;;;;;5049638;28;20525;-61
2022/07/26 06:24:33;;;;;;;10.90;2.17;;;;;;;;;;5048855;28;20114;-61
2022/07/26 06:26:59;;;;;;;8.20;1.30;;;;;;;;;;5049509;28;20043;-61
2022/07/26 06:29:25;;;;;;;7.27;1.10;;;;;;;;;;5049630;28;20140;-61
2022/07/26 06:31:51;;;;;;;6.57;1.10;;;;;;;;;;5049162;28;20067;-61
2022/07/26 06:34:17;;;;;;;8.47;1.47;;;;;;;;;;5048552;28;20406;-61
2022/07/26 06:36:43;;;;;;;9.67;2.33;;;;;;;;;;5049187;28;20053;-61
2022/07/26 06:39:09;;;;;;;8.50;1.27;;;;;;;;;;5049294;28;20137;-61
2022/07/26 06:41:36;;;;;;;12.67;2.13;;;;;;;;;;5048802;28;20124;-61
2022/07/26 06:44:02;;;;;;;8.63;1.20;;;;;;;;;;5048688;28;20045;-61
2022/07/26 06:46:28;;;;;;;7.07;1.50;;;;;;;;;;5049097;28;20176;-61
2022/07/26 06:48:54;;;;;;;14.70;2.03;;;;;;;;;;5048960;28;20174;-61
2022/07/26 06:51:21;;;;;;;5.67;1.10;;;;;;;;;;5049016;28;20064;-61
2022/07/26 06:53:47;;;;;;;5.27;1.07;;;;;;;;;;5048851;28;20037;-61
2022/07/26 06:56:14;;;;;;;4.07;1.10;;;;;;;;;;5048351;28;20424;-61
2022/07/26 06:58:41;;;;;;;10.50;1.17;;;;;;;;;;5048621;28;20052;-61
2022/07/26 07:01:07;;;;;;;5.97;0.93;;;;;;;;;;5048787;28;20099;-61
2022/07/26 07:03:33;;;;;;;3.80;0.80;;;;;;;;;;5048794;28;20045;-61
2022/07/26 07:05:59;;;;;;;4.60;0.90;;;;;;;;;;5048643;28;20056;-61
2022/07/26 07:08:25;;;;;;;5.00;1.00;;;;;;;;;;5048733;28;20053;-60
2022/07/26 07:10:52;;;;;;;6.30;1.17;;;;;;;;;;5047976;28;20044;-61
2022/07/26 07:13:18;;;;;;;5.63;1.50;;;;;;;;;;5048938;28;20037;-61
2022/07/26 07:15:44;;;;;;;5.47;1.00;;;;;;;;;;5048215;28;20142;-61
2022/07/26 07:18:10;;;;;;;8.13;1.93;;;;;;;;;;5048449;28;20085;-60
2022/07/26 07:20:38;;;;;;;4.73;1.00;;;;;;;;;;5048347;28;20499;-61
2022/07/26 07:23:04;;;;;;;5.23;1.03;;;;;;;;;;5047824;28;20045;-61
2022/07/26 07:25:30;;;;;;;6.33;1.10;;;;;;;;;;5046718;28;20047;-60
2022/07/26 07:27:56;;;;;;;8.37;1.27;;;;;;;;;;5048193;28;20127;-62
2022/07/26 07:30:22;;;;;;;6.50;1.20;;;;;;;;;;5048379;28;20080;-61
2022/07/26 07:32:48;;;;;;;6.63;1.20;;;;;;;;;;5046771;28;20115;-61
2022/07/26 07:35:14;;;;;;;8.20;1.10;;;;;;;;;;5047664;28;20136;-60
2022/07/26 07:37:40;;;;;;;5.77;1.10;;;;;;;;;;5048021;28;20088;-61
2022/07/26 07:40:07;;;;;;;6.43;1.10;;;;;;;;;;5048269;28;20052;-60
2022/07/26 07:42:33;;;;;;;6.90;1.30;;;;;;;;;;5047772;28;20057;-60
2022/07/26 07:44:59;;;;;;;7.20;1.13;;;;;;;;;;5047647;28;20067;-61
2022/07/26 07:47:25;;;;;;;7.67;1.50;;;;;;;;;;5047616;28;20052;-61
2022/07/26 07:49:51;;;;;;;6.03;0.90;;;;;;;;;;5047812;28;20056;-61
2022/07/26 07:52:17;;;;;;;5.67;0.90;;;;;;;;;;5047966;28;20453;-60
2022/07/26 07:54:43;;;;;;;3.57;0.90;;;;;;;;;;5047839;28;20128;-60
2022/07/26 07:57:09;;;;;;;5.77;0.90;;;;;;;;;;5047548;28;20505;-60
2022/07/26 07:59:35;;;;;;;6.03;1.00;;;;;;;;;;5047508;28;20117;-61
2022/07/26 08:02:01;;;;;;;5.30;1.00;;;;;;;;;;5047753;28;20574;-60
2022/07/26 08:04:27;;;;;;;4.53;0.73;;;;;;;;;;5047785;28;20095;-60
2022/07/26 08:06:53;;;;;;;2.37;0.60;;;;;;;;;;5047751;28;20072;-61
2022/07/26 08:09:19;;;;;;;3.93;1.00;;;;;;;;;;5047898;28;20171;-60
2022/07/26 08:11:45;;;;;;;7.23;0.97;;;;;;;;;;5047163;28;20053;-60
2022/07/26 08:14:11;;;;;;;3.10;1.30;;;;;;;;;;5047939;28;20064;-60
2022/07/26 08:16:38;;;;;;;2.70;0.60;;;;;;;;;;5047441;28;20045;-61
2022/07/26 08:19:04;;;;;;;3.97;0.90;;;;;;;;;;5047754;28;20048;-61
2022/07/26 08:21:30;;;;;;;3.50;0.60;;;;;;;;;;5047586;28;20049;-60
2022/07/26 08:23:59;;;;;;;3.13;0.67;;;;;;;;;;5046960;28;20041;-61
2022/07/26 08:26:25;;;;;;;3.37;0.70;;;;;;;;;;5047512;28;20040;-61
2022/07/26 08:28:51;;;;;;;5.23;0.80;;;;;;;;;;5050051;28;20071;-60
2022/07/26 08:31:19;;;;;;;4.07;1.17;;;;;;;;;;5051502;28;20490;-60
2022/07/26 08:33:45;;;;;;;3.57;0.73;;;;;;;;;;5050487;28;20152;-60
2022/07/26 08:36:12;;;;;;;5.10;0.90;;;;;;;;;;5051242;28;20646;-60
2022/07/26 08:38:38;;;;;;;6.50;0.90;;;;;;;;;;5050736;28;20045;-61
2022/07/26 08:41:04;;;;;;;4.97;1.30;;;;;;;;;;5051567;28;20061;-60
2022/07/26 08:43:30;;;;;;;6.83;1.03;;;;;;;;;;5050876;28;20053;-60
2022/07/26 08:46:01;;;;;;;4.10;0.70;;;;;;;;;;5051324;28;20041;-60
2022/07/26 08:48:27;;;;;;;5.00;0.90;;;;;;;;;;5050777;28;20048;-60
2022/07/26 08:50:54;;;;;;;6.67;0.90;;;;;;;;;;5051284;28;20049;-60
2022/07/26 08:53:20;;;;;;;7.43;1.33;;;;;;;;;;5051106;28;20445;-60
2022/07/26 08:55:47;;;;;;;5.40;1.47;;;;;;;;;;5051134;28;20495;-60
2022/07/26 08:58:13;;;;;;;10.67;1.50;;;;;;;;;;5050879;28;20131;-60
2022/07/26 09:00:42;;;;;;;4.30;0.80;;;;;;;;;;5050216;28;20074;-60
2022/07/26 09:03:23;;;;;;;6.03;0.93;;;;;;;;;;5051275;28;20049;-60
2022/07/26 09:05:49;;;;;;;3.53;1.37;;;;;;;;;;5051221;28;20049;-60
2022/07/26 09:08:28;;;;;;;6.57;1.10;;;;;;;;;;5051221;28;20056;-61
2022/07/26 09:10:55;;;;;;;6.17;1.33;;;;;;;;;;5051106;28;20048;-60
2022/07/26 09:13:22;;;;;;;5.47;1.10;;;;;;;;;;5050217;28;20044;-60
2022/07/26 09:16:07;;;;;;;4.90;0.70;;;;;;;;;;5051009;28;20125;-60
2022/07/26 09:18:33;;;;;;;5.83;1.10;;;;;;;;;;5051056;28;20066;-60
2022/07/26 09:21:01;;;;;;;4.70;0.83;;;;;;;;;;5051043;28;20052;-60
2022/07/26 09:23:38;;;;;;;5.20;0.80;;;;;;;;;;5051326;28;20045;-60
2022/07/26 09:26:04;;;;;;;4.23;0.90;;;;;;;;;;5051109;28;20068;-60
2022/07/26 09:28:30;;;;;;;6.83;1.07;;;;;;;;;;5051020;28;20045;-60
2022/07/26 09:30:58;;;;;;;5.23;1.20;;;;;;;;;;5050945;28;20045;-60
2022/07/26 09:33:24;;;;;;;4.43;1.10;;;;;;;;;;5051287;28;20044;-60
2022/07/26 09:36:00;;;;;;;5.33;0.70;;;;;;;;;;5050808;28;20037;-60
2022/07/26 09:38:37;;;;;;;6.33;1.27;;;;;;;;;;5050889;28;20180;-60
2022/07/26 09:41:15;;;;;;;6.30;1.10;;;;;;;;;;5050960;28;20090;-60
2022/07/26 09:43:41;;;;;;;5.90;1.13;;;;;;;;;;5050468;28;20060;-60
2022/07/26 09:46:09;;;;;;;6.73;1.87;;;;;;;;;;5051039;28;20133;-60
2022/07/26 09:48:38;;;;;;;4.97;1.20;;;;;;;;;;5050164;28;20064;-60
2022/07/26 09:51:04;;;;;;;5.53;1.25;;;;;;;;;;5058137;28;20086;-60
2022/07/26 09:53:38;;;;;;;5.03;1.60;;;;;;;;;;5070898;28;20074;-60
2022/07/26 09:56:04;;;;;;;5.57;1.10;;;;;;;;;;5069443;28;20059;-60
2022/07/26 09:58:30;;;;;;;6.88;1.15;;;;;;;;;;5070571;28;20072;-60
2022/07/26 10:00:56;;;;;;;8.45;1.70;;;;;;;;;;5070690;28;20528;-60
2022/07/26 10:03:22;;;;;;;5.75;1.33;;;;;;;;;;5070832;28;20056;-60
2022/07/26 10:05:49;;;;;;;6.73;1.10;;;;;;;;;;5070113;28;20055;-60
2022/07/26 10:08:15;;;;;;;5.50;1.23;;;;;;;;;;5070796;28;20044;-61
2022/07/26 10:10:41;;;;;;;4.97;1.40;;;;;;;;;;5070569;28;20557;-61
2022/07/26 10:13:08;;;;;;;2.47;0.80;;;;;;;;;;5070849;28;20047;-61
2022/07/26 10:15:34;;;;;;;4.13;0.90;;;;;;;;;;5070119;28;20052;-61
2022/07/26 10:18:00;;;;;;;4.67;1.20;;;;;;;;;;5069896;28;20463;-61
2022/07/26 10:20:39;;;;;;;4.03;0.90;;;;;;;;;;5070118;28;20131;-61
2022/07/26 10:23:25;;;;;;;5.03;1.30;;;;;;;;;;5070678;28;20405;-61
2022/07/26 10:25:51;;;;;;;6.03;0.93;;;;;;;;;;5070074;28;20043;-61
2022/07/26 10:28:25;;;;;;;5.50;1.30;;;;;;;;;;5069899;28;20075;-61
2022/07/26 10:30:51;;;;;;;4.43;1.10;;;;;;;;;;5070504;28;20146;-61
2022/07/26 10:33:18;;;;;;;7.15;1.40;;;;;;;;;;5068682;28;20499;-60
2022/07/26 10:35:44;;;;;;;8.75;1.80;;;;;;;;;;5069794;28;20138;-61
2022/07/26 10:38:14;;;;;;;8.43;1.70;;;;;;;;;;5069384;28;20502;-61
2022/07/26 10:40:58;;;;;;;6.50;2.03;;;;;;;;;;5069819;28;20052;-61
2022/07/26 10:43:25;;;;;;;6.80;1.70;;;;;;;;;;5069516;28;20051;-60
2022/07/26 10:46:09;;;;;;;8.52;1.65;;;;;;;;;;5070217;28;20196;-60
2022/07/26 10:48:54;;;;;;;8.43;2.13;;;;;;;;;;5069943;28;20040;-61
2022/07/26 10:51:24;;;;;;;10.60;2.45;;;;;;;;;;5070494;28;20036;-60
2022/07/26 10:53:58;;;;;;;7.47;1.98;;;;;;;;;;5070900;28;20418;-61
2022/07/26 10:56:24;;;;;;;11.10;2.75;;;;;;;;;;5064986;28;20041;-61
2022/07/26 10:58:50;;;;;;;9.55;2.53;;;;;;;;;;5054921;28;20056;-61
2022/07/26 11:01:16;;;;;;;7.70;1.50;;;;;;;;;;5061172;28;20482;-61
2022/07/26 11:03:43;;;;;;;6.95;2.10;;;;;;;;;;5062705;28;20056;-60
2022/07/26 11:06:12;;;;;;;6.33;1.40;;;;;;;;;;5059396;28;20041;-60
2022/07/26 11:08:38;;;;;;;8.70;1.50;;;;;;;;;;5059697;28;20083;-61
2022/07/26 11:11:04;;;;;;;7.83;2.00;;;;;;;;;;5060694;28;20074;-61
2022/07/26 11:13:32;;;;;;;8.17;2.00;;;;;;;;;;5056561;28;20060;-61
2022/07/26 11:15:59;;;;;;;6.33;1.77;;;;;;;;;;5058294;28;20064;-60
2022/07/26 11:18:31;;;;;;;6.43;1.77;;;;;;;;;;5055253;28;20037;-61
2022/07/26 11:20:58;;;;;;;7.00;1.58;;;;;;;;;;5056533;28;20041;-60
2022/07/26 11:23:24;;;;;;;9.55;2.08;;;;;;;;;;5061249;28;20099;-60
2022/07/26 11:26:02;;;;;;;10.93;2.30;;;;;;;;;;5063188;28;20044;-60
2022/07/26 11:28:28;;;;;;;5.30;1.48;;;;;;;;;;5056331;28;20133;-61
2022/07/26 11:30:58;;;;;;;7.47;2.33;;;;;;;;;;5060070;28;20499;-61
2022/07/26 11:33:37;;;;;;;7.22;1.50;;;;;;;;;;5060942;28;20402;-61
2022/07/26 11:36:03;;;;;;;8.73;1.70;;;;;;;;;;5059697;28;20052;-61
2022/07/26 11:38:45;;;;;;;9.88;1.95;;;;;;;;;;5058436;28;20032;-61
2022/07/26 11:41:11;;;;;;;8.70;1.83;;;;;;;;;;5058875;28;20052;-61
2022/07/26 11:43:38;;;;;;;11.27;2.30;;;;;;;;;;5061382;28;20138;-60
2022/07/26 11:46:05;;;;;;;8.20;2.33;;;;;;;;;;5059356;28;20078;-61
2022/07/26 11:48:32;;;;;;;8.30;1.67;;;;;;;;;;5056665;28;20033;-62
2022/07/26 11:51:11;;;;;;;11.03;2.80;;;;;;;;;;5058230;28;20528;-61
2022/07/26 11:53:38;;;;;;;10.57;2.10;;;;;;;;;;5057420;28;20614;-59
2022/07/26 11:56:17;;;;;;;8.07;1.93;;;;;;;;;;5060498;28;20037;-61
2022/07/26 11:58:45;;;;;;;8.03;1.93;;;;;;;;;;5056875;28;20123;-61
2022/07/26 12:01:12;;;;;;;11.20;2.93;;;;;;;;;;5060048;28;20047;-60
2022/07/26 12:03:39;;;;;;;10.43;2.00;;;;;;;;;;5065779;28;20079;-60
2022/07/26 12:06:06;;;;;;;9.57;2.00;;;;;;;;;;5067873;28;20048;-60
2022/07/26 12:08:43;;;;;;;8.20;1.50;;;;;;;;;;5049377;28;20071;-60
2022/07/26 12:11:10;;;;;;;9.50;1.50;;;;;;;;;;5053168;28;20182;-61
2022/07/26 12:13:48;;;;;;;8.00;1.48;;;;;;;;;;5058284;28;20048;-61
2022/07/26 12:16:33;;;;;;;6.55;1.60;;;;;;;;;;5058335;28;20080;-61
2022/07/26 12:18:59;;;;;;;5.88;1.60;;;;;;;;;;5058914;28;20037;-61
2022/07/26 12:21:37;;;;;;;5.65;1.38;;;;;;;;;;5058323;28;20048;-60
2022/07/26 12:24:03;;;;;;;8.75;2.10;;;;;;;;;;5059911;28;20040;-58
2022/07/26 12:26:32;;;;;;;7.03;1.75;;;;;;;;;;5057709;28;20041;-58
2022/07/26 12:29:23;;;;;;;7.40;1.88;;;;;;;;;;5056915;28;20041;-60
2022/07/26 12:31:45;;;;;;;6.43;1.33;;;;;;;;;;5054425;28;20534;-59
2022/07/26 12:34:11;;;;;;;5.28;1.60;;;;;;;;;;5058716;28;20091;-59
2022/07/26 12:36:37;;;;;;;5.78;1.70;;;;;;;;;;5056434;28;20406;-59
2022/07/26 12:39:04;;;;;;;13.07;3.88;;;;;;;;;;5059760;28;20072;-59
2022/07/26 12:41:39;;;;;;;7.38;2.50;;;;;;;;;;5058639;28;20041;-60
2022/07/26 12:44:09;;;;;;;7.95;1.60;;;;;;;;;;5060410;28;20099;-60
2022/07/26 12:46:36;;;;;;;5.40;1.23;;;;;;;;;;5057668;28;20064;-59
2022/07/26 12:49:02;;;;;;;7.38;2.45;;;;;;;;;;5057653;28;20076;-59
2022/07/26 12:51:28;;;;;;;6.13;1.45;;;;;;;;;;5059555;28;20063;-59
2022/07/26 12:53:54;;;;;;;3.58;1.13;;;;;;;;;;5059466;28;20040;-60
2022/07/26 12:56:20;;;;;;;6.60;1.20;;;;;;;;;;5057526;28;20041;-60
2022/07/26 12:58:46;;;;;;;5.85;1.77;;;;;;;;;;5058533;28;20522;-59
2022/07/26 13:01:12;;;;;;;6.00;1.85;;;;;;;;;;5059704;28;20128;-60
2022/07/26 13:03:38;;;;;;;4.78;1.60;;;;;;;;;;5054760;28;20041;-60
2022/07/26 13:06:05;;;;;;;5.22;1.30;;;;;;;;;;5058469;28;20040;-60
2022/07/26 13:08:31;;;;;;;6.28;1.63;;;;;;;;;;5058853;28;20044;-60
2022/07/26 13:10:57;;;;;;;7.20;1.80;;;;;;;;;;5056151;28;20045;-61
2022/07/26 13:13:23;;;;;;;5.82;1.30;;;;;;;;;;5056143;28;20040;-60
2022/07/26 13:15:49;;;;;;;5.90;1.40;;;;;;;;;;5061919;28;20037;-61
2022/07/26 13:18:15;;;;;;;4.82;1.40;;;;;;;;;;5059216;28;20059;-60
2022/07/26 13:20:41;;;;;;;5.43;1.35;;;;;;;;;;5062754;28;20048;-60
2022/07/26 13:23:11;;;;;;;5.10;1.48;;;;;;;;;;5061710;28;20502;-60
2022/07/26 13:25:37;;;;;;;5.15;1.15;;;;;;;;;;5059866;28;20086;-60
2022/07/26 13:28:03;;;;;;;6.05;1.73;;;;;;;;;;5060481;28;20072;-60
2022/07/26 13:30:29;;;;;;;5.95;1.50;;;;;;;;;;5061237;28;20052;-60
2022/07/26 13:32:55;;;;;;;6.47;1.02;;;;;;;;;;5063463;28;20536;-60
2022/07/26 13:35:21;;;;;;;4.25;1.10;;;;;;;;;;5060594;28;20048;-60
2022/07/26 13:37:47;;;;;;;4.25;1.48;;;;;;;;;;5061209;28;20052;-60
2022/07/26 13:40:13;;;;;;;3.50;1.10;;;;;;;;;;5057604;28;20045;-60
2022/07/26 13:42:39;;;;;;;5.32;1.25;;;;;;;;;;5057655;28;20541;-60
2022/07/26 13:45:06;;;;;;;4.57;1.40;;;;;;;;;;5059437;28;20051;-60
2022/07/26 13:47:32;;;;;;;4.18;1.10;;;;;;;;;;5060218;28;20589;-61
2022/07/26 13:49:58;;;;;;;3.97;1.15;;;;;;;;;;5062139;28;20036;-59
2022/07/26 13:52:24;;;;;;;3.92;1.20;;;;;;;;;;5060167;28;20045;-59
2022/07/26 13:54:50;;;;;;;5.53;1.45;;;;;;;;;;5058208;28;20383;-60
2022/07/26 13:57:16;;;;;;;4.85;1.50;;;;;;;;;;5063010;28;20148;-60
2022/07/26 13:59:42;;;;;;;4.88;1.45;;;;;;;;;;5056596;28;20487;-60
2022/07/26 14:02:08;;;;;;;4.07;1.25;;;;;;;;;;5060782;28;20048;-60
2022/07/26 14:04:34;;;;;;;5.68;1.52;;;;;;;;;;5060908;28;20041;-60
2022/07/26 14:07:00;;;;;;;5.25;1.20;;;;;;;;;;5059798;28;20049;-60
2022/07/26 14:09:26;;;;;;;4.63;1.02;;;;;;;;;;5062348;28;20038;-60
2022/07/26 14:11:52;;;;;;;5.38;1.58;;;;;;;;;;5060570;28;20052;-60
2022/07/26 14:14:18;;;;;;;4.93;1.13;;;;;;;;;;5059216;28;20088;-60
2022/07/26 14:16:44;;;;;;;5.03;1.15;;;;;;;;;;5058596;28;20148;-60
2022/07/26 14:19:12;;;;;;;7.35;1.00;;;;;;;;;;5059822;28;20059;-60
2022/07/26 14:21:38;;;;;;;4.35;1.58;;;;;;;;;;5061405;28;20076;-60
2022/07/26 14:24:05;;;;;;;4.50;1.30;;;;;;;;;;5059801;28;20048;-60
2022/07/26 14:26:31;;;;;;;6.30;1.60;;;;;;;;;;5062700;28;20094;-61
2022/07/26 14:28:57;;;;;;;3.97;1.40;;;;;;;;;;5070732;28;20098;-60
2022/07/26 14:31:23;;;;;;;5.20;1.45;;;;;;;;;;5071045;28;20562;-60
2022/07/26 14:33:49;;;;;;;4.55;1.38;;;;;;;;;;5071146;28;20135;-60
2022/07/26 14:36:15;;;;;;;5.20;1.10;;;;;;;;;;5070132;28;20430;-61
2022/07/26 14:38:42;;;;;;;6.03;1.60;;;;;;;;;;5071027;28;20040;-60
2022/07/26 14:41:08;;;;;;;3.55;1.00;;;;;;;;;;5070881;28;20045;-60
2022/07/26 14:43:34;;;;;;;3.80;1.33;;;;;;;;;;5068701;28;20055;-60